createdAt,value
2023-04-24T00:00:46.283Z,96616.50
2023-04-24T00:03:17.439Z,96607.16
2023-04-24T00:05:51.000Z,96606.13
2023-04-24T00:08:22.449Z,96607.91
2023-04-24T00:10:53.962Z,96604.00
2023-04-24T00:13:24.432Z,96603.94
2023-04-24T00:15:54.969Z,96605.22
2023-04-24T00:18:25.632Z,96606.34
2023-04-24T00:20:58.651Z,96592.50
2023-04-24T00:23:29.114Z,96602.13
2023-04-24T00:25:59.579Z,96607.03
2023-04-24T00:28:30.041Z,96599.88
2023-04-24T00:31:00.713Z,96596.94
2023-04-24T00:33:31.218Z,96597.16
2023-04-24T00:36:04.362Z,96601.59
2023-04-24T00:38:34.936Z,96597.31
2023-04-24T00:41:05.673Z,96594.06
2023-04-24T00:43:36.649Z,96591.19
2023-04-24T00:46:07.847Z,96584.28
2023-04-24T00:48:39.034Z,96589.31
2023-04-24T00:51:12.300Z,96580.91
2023-04-24T00:53:43.236Z,96592.56
2023-04-24T00:56:14.333Z,96590.22
2023-04-24T00:58:48.842Z,96587.44
2023-04-24T01:01:22.120Z,96585.66
2023-04-24T01:03:59.234Z,96583.06
2023-04-24T01:06:34.563Z,96600.84
2023-04-24T01:09:05.230Z,96588.69
2023-04-24T01:11:36.413Z,96587.28
2023-04-24T01:14:07.579Z,96587.03
2023-04-24T01:16:41.190Z,96581.34
2023-04-24T01:19:11.960Z,96571.72
2023-04-24T01:21:47.550Z,96583.81
2023-04-24T01:24:23.298Z,96582.81
2023-04-24T01:26:57.019Z,96571.16
2023-04-24T01:29:28.062Z,96571.72
2023-04-24T01:31:59.929Z,96573.81
2023-04-24T01:34:30.751Z,96566.38
2023-04-24T01:37:01.053Z,96575.22
2023-04-24T01:39:34.733Z,96575.59
2023-04-24T01:42:05.891Z,96575.66
2023-04-24T01:44:37.736Z,96570.44
2023-04-24T01:47:09.885Z,96576.19
2023-04-24T01:49:44.692Z,96579.53
2023-04-24T01:52:20.655Z,96582.97
2023-04-24T01:54:54.659Z,96587.72
2023-04-24T01:57:25.217Z,96587.84
2023-04-24T01:59:56.081Z,96590.63
2023-04-24T02:02:28.761Z,96585.31
2023-04-24T02:05:04.317Z,96582.91
2023-04-24T02:07:34.841Z,96588.22
2023-04-24T02:10:09.930Z,96586.09
2023-04-24T02:12:40.784Z,96591.69
2023-04-24T02:15:13.133Z,96593.31
2023-04-24T02:17:43.867Z,96583.91
2023-04-24T02:20:15.159Z,96595.72
2023-04-24T02:22:45.746Z,96590.16
2023-04-24T02:25:18.937Z,96599.03
2023-04-24T02:27:53.500Z,96590.72
2023-04-24T02:30:24.407Z,96587.38
2023-04-24T02:32:54.958Z,96592.47
2023-04-24T02:35:25.443Z,96586.50
2023-04-24T02:37:58.303Z,96590.84
2023-04-24T02:40:31.433Z,96591.16
2023-04-24T02:43:02.036Z,96588.38
2023-04-24T02:45:35.977Z,96590.47
2023-04-24T02:48:07.838Z,96593.59
2023-04-24T02:50:38.916Z,96594.03
2023-04-24T02:53:09.237Z,96591.50
2023-04-24T02:55:43.592Z,96586.66
2023-04-24T02:58:18.296Z,96591.13
2023-04-24T03:00:48.857Z,96583.78
2023-04-24T03:03:19.616Z,96588.56
2023-04-24T03:05:50.218Z,96575.44
2023-04-24T03:08:21.068Z,96579.34
2023-04-24T03:10:55.507Z,96580.84
2023-04-24T03:13:25.959Z,96586.41
2023-04-24T03:15:56.984Z,96587.94
2023-04-24T03:18:27.453Z,96594.03
2023-04-24T03:20:58.414Z,96580.00
2023-04-24T03:23:28.805Z,96594.94
2023-04-24T03:26:08.318Z,96587.88
2023-04-24T03:28:42.138Z,96579.84
2023-04-24T03:31:12.877Z,96580.09
2023-04-24T03:33:43.581Z,96577.81
2023-04-24T03:36:14.581Z,96572.00
2023-04-24T03:38:45.750Z,96575.81
2023-04-24T03:41:29.965Z,96578.59
2023-04-24T03:44:08.058Z,96577.09
2023-04-24T03:46:39.235Z,96574.38
2023-04-24T03:49:10.854Z,96581.69
2023-04-24T03:51:45.610Z,96580.47
2023-04-24T03:54:22.945Z,96581.31
2023-04-24T03:57:03.237Z,96594.47
2023-04-24T03:59:37.298Z,96585.91
2023-04-24T04:02:20.230Z,96586.88
2023-04-24T04:04:51.795Z,96592.44
2023-04-24T04:07:22.440Z,96573.50
2023-04-24T04:09:54.348Z,96575.03
2023-04-24T04:12:30.339Z,96589.19
2023-04-24T04:15:02.238Z,96572.72
2023-04-24T04:17:35.360Z,96578.78
2023-04-24T04:20:13.253Z,96583.28
2023-04-24T04:22:44.874Z,96590.78
2023-04-24T04:25:21.017Z,96595.75
2023-04-24T04:27:55.322Z,96588.94
2023-04-24T04:30:29.588Z,96594.53
2023-04-24T04:33:06.076Z,96592.81
2023-04-24T04:35:38.059Z,96585.50
2023-04-24T04:38:09.581Z,96588.06
2023-04-24T04:40:48.154Z,96586.16
2023-04-24T04:43:23.724Z,96586.22
2023-04-24T04:45:57.192Z,96582.75
2023-04-24T04:48:52.766Z,96577.03
2023-04-24T04:51:23.408Z,96567.94
2023-04-24T04:53:54.000Z,96567.22
2023-04-24T04:56:24.521Z,96568.72
2023-04-24T04:58:58.001Z,96573.41
2023-04-24T05:01:29.478Z,96576.69
2023-04-24T05:04:00.833Z,96584.56
2023-04-24T05:06:32.157Z,96603.28
2023-04-24T05:09:04.642Z,96599.47
2023-04-24T05:11:42.461Z,96605.41
2023-04-24T05:14:16.455Z,96603.09
2023-04-24T05:16:47.318Z,96610.47
2023-04-24T05:19:19.404Z,96606.59
2023-04-24T05:21:50.315Z,96609.56
2023-04-24T05:24:21.605Z,96613.66
2023-04-24T05:27:14.146Z,96619.13
2023-04-24T05:29:47.995Z,96619.34
2023-04-24T05:32:18.595Z,96633.25
2023-04-24T05:34:49.287Z,96631.66
2023-04-24T05:37:22.399Z,96644.84
2023-04-24T05:39:52.994Z,96635.56
2023-04-24T05:42:23.470Z,96629.94
2023-04-24T05:44:58.062Z,96637.72
2023-04-24T05:47:28.765Z,96637.78
2023-04-24T05:49:59.330Z,96628.63
2023-04-24T05:52:30.100Z,96632.47
2023-04-24T05:55:00.864Z,96621.78
2023-04-24T05:57:36.449Z,96626.34
2023-04-24T06:00:13.291Z,96634.94
2023-04-24T06:02:55.690Z,96624.56
2023-04-24T06:05:27.165Z,96623.44
2023-04-24T06:07:57.823Z,96639.00
2023-04-24T06:10:31.831Z,96624.41
2023-04-24T06:13:03.437Z,96630.22
2023-04-24T06:15:38.260Z,96632.72
2023-04-24T06:18:11.814Z,96615.59
2023-04-24T06:20:43.498Z,96628.19
2023-04-24T06:23:14.172Z,96627.09
2023-04-24T06:25:44.700Z,96621.16
2023-04-24T06:28:17.386Z,96633.59
2023-04-24T06:30:50.534Z,96633.81
2023-04-24T06:33:23.703Z,96626.34
2023-04-24T06:35:54.382Z,96638.09
2023-04-24T06:38:24.895Z,96640.50
2023-04-24T06:40:55.489Z,96618.69
2023-04-24T06:43:26.102Z,96618.91
2023-04-24T06:45:59.370Z,96623.78
2023-04-24T06:48:30.109Z,96622.41
2023-04-24T06:51:00.601Z,96617.38
2023-04-24T06:53:31.468Z,96614.25
2023-04-24T06:56:02.240Z,96617.72
2023-04-24T06:58:32.882Z,96610.88
2023-04-24T07:01:06.038Z,96614.25
2023-04-24T07:03:36.692Z,96615.81
2023-04-24T07:06:09.390Z,96623.53
2023-04-24T07:08:40.017Z,96618.75
2023-04-24T07:11:10.499Z,96620.78
2023-04-24T07:13:43.103Z,96620.50
2023-04-24T07:16:16.486Z,96626.25
2023-04-24T07:18:47.044Z,96632.06
2023-04-24T07:21:17.768Z,96622.63
2023-04-24T07:23:48.484Z,96636.69
2023-04-24T07:26:19.032Z,96645.13
2023-04-24T07:28:49.533Z,96648.25
2023-04-24T07:31:23.041Z,96645.59
2023-04-24T07:33:53.619Z,96647.06
2023-04-24T07:36:25.356Z,96644.41
2023-04-24T07:38:56.678Z,96650.91
2023-04-24T07:41:29.171Z,96646.50
2023-04-24T07:43:59.642Z,96641.75
2023-04-24T07:46:34.538Z,96645.94
2023-04-24T07:49:12.487Z,96646.16
2023-04-24T07:51:44.594Z,96645.19
2023-04-24T07:54:15.244Z,96666.00
2023-04-24T07:56:46.805Z,96649.41
2023-04-24T07:59:17.444Z,96650.34
2023-04-24T08:01:50.579Z,96651.72
2023-04-24T08:04:21.960Z,96654.19
2023-04-24T08:06:52.776Z,96662.59
2023-04-24T08:09:23.760Z,96663.41
2023-04-24T08:11:54.472Z,96671.59
2023-04-24T08:14:24.920Z,96676.88
2023-04-24T08:17:01.349Z,96670.31
2023-04-24T08:19:31.824Z,96672.50
2023-04-24T08:22:02.268Z,96670.97
2023-04-24T08:24:32.739Z,96666.09
2023-04-24T08:27:03.467Z,96671.31
2023-04-24T08:29:34.115Z,96667.09
2023-04-24T08:32:07.882Z,96664.25
2023-04-24T08:34:38.527Z,96662.38
2023-04-24T08:37:09.006Z,96675.41
2023-04-24T08:39:39.546Z,96667.28
2023-04-24T08:42:10.297Z,96668.38
2023-04-24T08:44:41.218Z,96662.66
2023-04-24T08:47:16.270Z,96668.03
2023-04-24T08:49:47.642Z,96660.03
2023-04-24T08:52:18.183Z,96675.84
2023-04-24T08:54:50.581Z,96676.16
2023-04-24T08:57:21.828Z,96672.69
2023-04-24T08:59:53.203Z,96657.31
2023-04-24T09:02:27.608Z,96661.66
2023-04-24T09:05:00.204Z,96655.44
2023-04-24T09:07:34.801Z,96659.09
2023-04-24T09:10:06.197Z,96666.53
2023-04-24T09:12:37.166Z,96653.47
2023-04-24T09:15:09.689Z,96649.69
2023-04-24T09:17:42.976Z,96648.03
2023-04-24T09:20:14.165Z,96650.91
2023-04-24T09:22:44.801Z,96660.69
2023-04-24T09:25:15.571Z,96654.09
2023-04-24T09:27:47.896Z,96658.84
2023-04-24T09:30:26.293Z,96655.91
2023-04-24T09:33:14.901Z,96651.06
2023-04-24T09:35:46.994Z,96662.06
2023-04-24T09:38:17.578Z,96660.34
2023-04-24T09:40:48.274Z,96660.84
2023-04-24T09:43:19.195Z,96661.69
2023-04-24T09:45:49.412Z,96662.91
2023-04-24T09:48:22.652Z,96667.06
2023-04-24T09:50:56.940Z,96671.50
2023-04-24T09:53:29.732Z,96674.50
2023-04-24T09:56:00.785Z,96661.47
2023-04-24T09:58:33.262Z,96673.13
2023-04-24T10:01:03.695Z,96668.94
2023-04-24T10:03:38.017Z,96663.03
2023-04-24T10:06:10.273Z,96661.25
2023-04-24T10:08:41.682Z,96666.66
2023-04-24T10:11:12.725Z,96656.94
2023-04-24T10:13:44.635Z,96653.16
2023-04-24T10:16:15.187Z,96673.78
2023-04-24T10:18:49.081Z,96652.88
2023-04-24T10:21:21.244Z,96665.38
2023-04-24T10:23:53.381Z,96661.69
2023-04-24T10:26:24.574Z,96656.13
2023-04-24T10:28:56.229Z,96653.72
2023-04-24T10:31:27.102Z,96653.13
2023-04-24T10:34:01.131Z,96667.03
2023-04-24T10:36:34.505Z,96650.25
2023-04-24T10:39:16.029Z,96647.06
2023-04-24T10:41:47.597Z,96669.75
2023-04-24T10:44:20.440Z,96657.78
2023-04-24T10:46:57.745Z,96665.75
2023-04-24T10:49:50.638Z,96662.03
2023-04-24T10:52:27.032Z,96681.66
2023-04-24T10:54:59.279Z,96682.06
2023-04-24T10:57:37.405Z,96681.94
2023-04-24T11:00:19.591Z,96678.84
2023-04-24T11:02:54.982Z,96664.94
2023-04-24T11:06:04.617Z,96688.47
2023-04-24T11:08:41.982Z,96680.09
2023-04-24T11:11:17.596Z,96675.44
2023-04-24T11:14:12.344Z,96679.97
2023-04-24T11:16:48.909Z,96695.41
2023-04-24T11:19:27.517Z,96680.66
2023-04-24T11:22:05.271Z,96703.78
2023-04-24T11:24:45.334Z,96701.59
2023-04-24T11:27:23.633Z,96701.44
2023-04-24T11:30:04.965Z,96703.28
2023-04-24T11:32:40.581Z,96707.09
2023-04-24T11:35:18.002Z,96728.53
2023-04-24T11:38:18.700Z,96720.16
2023-04-24T11:40:48.844Z,96716.00
2023-04-24T11:43:22.112Z,96722.53
2023-04-24T11:45:53.154Z,96729.16
2023-04-24T11:48:24.827Z,96719.09
2023-04-24T11:50:57.337Z,96730.84
2023-04-24T11:53:30.334Z,96717.63
2023-04-24T11:56:07.095Z,96731.72
2023-04-24T11:58:39.792Z,96714.97
2023-04-24T12:01:10.260Z,96707.69
2023-04-24T12:03:41.105Z,96714.38
2023-04-24T12:06:12.833Z,96714.47
2023-04-24T12:08:45.924Z,96730.50
2023-04-24T12:11:20.911Z,96757.06
2023-04-24T12:13:51.351Z,96736.06
2023-04-24T12:16:22.235Z,96730.47
2023-04-24T12:18:55.655Z,96732.19
2023-04-24T12:21:28.460Z,96725.88
2023-04-24T12:24:02.760Z,96711.09
2023-04-24T12:26:33.375Z,96711.06
2023-04-24T12:29:09.229Z,96737.19
2023-04-24T12:31:39.812Z,96728.25
2023-04-24T12:34:23.061Z,96733.34
2023-04-24T12:36:54.062Z,96733.81
2023-04-24T12:39:27.927Z,96737.19
2023-04-24T12:42:02.486Z,96733.97
2023-04-24T12:44:38.290Z,96742.06
2023-04-24T12:47:08.797Z,96723.03
2023-04-24T12:49:39.403Z,96735.88
2023-04-24T12:52:09.774Z,96724.28
2023-04-24T12:54:42.920Z,96729.84
2023-04-24T12:57:13.371Z,96711.34
2023-04-24T12:59:44.023Z,96722.72
2023-04-24T13:02:15.517Z,96723.59
2023-04-24T13:04:46.027Z,96717.19
2023-04-24T13:07:16.869Z,96715.56
2023-04-24T13:09:53.384Z,96712.97
2023-04-24T13:12:25.166Z,96715.28
2023-04-24T13:14:55.627Z,96706.00
2023-04-24T13:17:26.445Z,96719.19
2023-04-24T13:19:59.254Z,96701.72
2023-04-24T13:22:29.797Z,96723.56
2023-04-24T13:25:02.916Z,96715.31
2023-04-24T13:27:33.316Z,96720.09
2023-04-24T13:30:04.011Z,96711.50
2023-04-24T13:32:34.651Z,96723.41
2023-04-24T13:35:05.164Z,96720.66
2023-04-24T13:37:36.261Z,96717.16
2023-04-24T13:40:11.573Z,96711.16
2023-04-24T13:42:42.100Z,96719.31
2023-04-24T13:45:24.699Z,96716.22
2023-04-24T13:47:58.259Z,96694.44
2023-04-24T13:50:28.763Z,96702.28
2023-04-24T13:53:02.638Z,96693.09
2023-04-24T13:55:36.304Z,96693.63
2023-04-24T13:58:07.720Z,96678.19
2023-04-24T14:00:38.193Z,96694.13
2023-04-24T14:03:08.435Z,96681.66
2023-04-24T14:05:39.263Z,96691.28
2023-04-24T14:08:09.921Z,96702.28
2023-04-24T14:10:42.944Z,96707.69
2023-04-24T14:13:13.449Z,96708.81
2023-04-24T14:15:44.005Z,96715.53
2023-04-24T14:18:14.218Z,96708.66
2023-04-24T14:20:44.755Z,96707.00
2023-04-24T14:23:18.425Z,96705.28
2023-04-24T14:25:53.622Z,96705.56
2023-04-24T14:28:25.176Z,96700.03
2023-04-24T14:30:57.238Z,96701.78
2023-04-24T14:33:27.618Z,96707.34
2023-04-24T14:35:58.029Z,96690.25
2023-04-24T14:38:28.405Z,96703.78
2023-04-24T14:43:36.462Z,96693.38
2023-04-24T14:46:07.060Z,96719.66
2023-04-24T14:48:37.421Z,96713.47
2023-04-24T14:51:07.879Z,96713.47
2023-04-24T14:53:38.545Z,96718.19
2023-04-24T14:56:11.641Z,96717.44
2023-04-24T14:58:42.256Z,96711.34
2023-04-24T15:01:12.697Z,96718.31
2023-04-24T15:03:43.190Z,96727.59
2023-04-24T15:06:13.878Z,96721.03
2023-04-24T15:08:44.291Z,96720.31
2023-04-24T15:11:17.307Z,96731.22
2023-04-24T15:13:48.929Z,96717.69
2023-04-24T15:16:19.567Z,96724.69
2023-04-24T15:18:50.056Z,96712.88
2023-04-24T15:21:20.536Z,96719.97
2023-04-24T15:23:51.095Z,96728.06
2023-04-24T15:26:24.363Z,96724.69
2023-04-24T15:28:55.583Z,96727.00
2023-04-24T15:31:28.323Z,96730.56
2023-04-24T15:33:58.756Z,96734.28
2023-04-24T15:36:29.253Z,96724.38
2023-04-24T15:38:59.637Z,96731.03
2023-04-24T15:41:32.817Z,96744.25
2023-04-24T15:44:03.241Z,96752.09
2023-04-24T15:46:33.844Z,96745.19
2023-04-24T15:49:04.390Z,96748.59
2023-04-24T15:51:34.830Z,96760.22
2023-04-24T15:54:05.271Z,96783.91
2023-04-24T15:56:38.527Z,96772.63
2023-04-24T15:59:09.200Z,96779.41
2023-04-24T16:01:40.185Z,96789.81
2023-04-24T16:04:11.018Z,96783.25
2023-04-24T16:06:41.264Z,96797.78
2023-04-24T16:09:13.653Z,96794.44
2023-04-24T16:11:46.776Z,96798.56
2023-04-24T16:14:17.260Z,96802.88
2023-04-24T16:16:47.742Z,96794.03
2023-04-24T16:19:18.246Z,96805.34
2023-04-24T16:21:48.608Z,96800.06
2023-04-24T16:24:18.993Z,96810.72
2023-04-24T16:26:52.733Z,96814.22
2023-04-24T16:29:24.033Z,96819.88
2023-04-24T16:31:54.492Z,96807.31
2023-04-24T16:34:24.989Z,96811.38
2023-04-24T16:36:55.428Z,96806.44
2023-04-24T16:39:27.083Z,96812.94
2023-04-24T16:42:00.949Z,96826.69
2023-04-24T16:44:31.845Z,96830.09
2023-04-24T16:47:02.433Z,96824.47
2023-04-24T16:49:33.648Z,96832.06
2023-04-24T16:52:04.656Z,96843.00
2023-04-24T16:54:36.005Z,96835.16
2023-04-24T16:57:09.666Z,96843.31
2023-04-24T16:59:41.045Z,96828.97
2023-04-24T17:02:12.541Z,96832.84
2023-04-24T17:04:43.083Z,96836.94
2023-04-24T17:07:13.723Z,96834.66
2023-04-24T17:09:44.144Z,96844.56
2023-04-24T17:12:17.137Z,96838.03
2023-04-24T17:14:47.506Z,96845.38
2023-04-24T17:17:20.278Z,96845.94
2023-04-24T17:19:51.542Z,96837.59
2023-04-24T17:22:22.020Z,96838.56
2023-04-24T17:24:52.430Z,96854.81
2023-04-24T17:27:25.561Z,96846.31
2023-04-24T17:29:56.114Z,96841.47
2023-04-24T17:32:26.573Z,96850.06
2023-04-24T17:34:57.069Z,96854.28
2023-04-24T17:37:27.738Z,96853.91
2023-04-24T17:39:58.421Z,96860.56
2023-04-24T17:42:31.483Z,96859.50
2023-04-24T17:45:01.903Z,96857.50
2023-04-24T17:47:32.716Z,96844.88
2023-04-24T17:50:03.453Z,96849.63
2023-04-24T17:52:35.170Z,96854.16
2023-04-24T17:55:05.692Z,96853.88
2023-04-24T17:57:38.944Z,96864.22
2023-04-24T18:00:11.872Z,96862.19
2023-04-24T18:02:42.547Z,96875.44
2023-04-24T18:05:13.431Z,96872.94
2023-04-24T18:07:44.019Z,96887.59
2023-04-24T18:10:14.695Z,96904.28
2023-04-24T18:12:47.798Z,96901.00
2023-04-24T18:15:18.898Z,96899.69
2023-04-24T18:17:49.759Z,96908.34
2023-04-24T18:20:21.342Z,96911.41
2023-04-24T18:22:52.082Z,96914.75
2023-04-24T18:25:27.154Z,96924.16
2023-04-24T18:28:00.577Z,96921.16
2023-04-24T18:30:31.386Z,96930.00
2023-04-24T18:33:02.227Z,96926.25
2023-04-24T18:35:32.769Z,96931.28
2023-04-24T18:38:03.316Z,96938.63
2023-04-24T18:40:33.933Z,96939.09
2023-04-24T18:43:07.012Z,96935.56
2023-04-24T18:45:37.510Z,96941.34
2023-04-24T18:48:08.444Z,96935.28
2023-04-24T18:50:40.828Z,96952.19
2023-04-24T18:53:14.864Z,96946.66
2023-04-24T18:55:45.356Z,96947.34
2023-04-24T18:58:18.434Z,96959.19
2023-04-24T19:00:48.994Z,96957.94
2023-04-24T19:03:19.679Z,96960.94
2023-04-24T19:05:50.275Z,96961.38
2023-04-24T19:08:20.910Z,96968.69
2023-04-24T19:10:51.531Z,96974.25
2023-04-24T19:13:24.787Z,96974.06
2023-04-24T19:15:55.093Z,96981.91
2023-04-24T19:18:26.545Z,96985.22
2023-04-24T19:20:57.067Z,96978.94
2023-04-24T19:23:27.581Z,96978.47
2023-04-24T19:25:58.021Z,96979.69
2023-04-24T19:28:31.119Z,96976.91
2023-04-24T19:31:01.664Z,96986.50
2023-04-24T19:33:34.481Z,96996.59
2023-04-24T19:36:05.835Z,96984.50
2023-04-24T19:38:36.431Z,96995.88
2023-04-24T19:41:07.450Z,96990.31
2023-04-24T19:43:40.394Z,96996.63
2023-04-24T19:46:13.799Z,96990.81
2023-04-24T19:48:44.273Z,96993.88
2023-04-24T19:51:14.703Z,96996.91
2023-04-24T19:53:46.092Z,96993.38
2023-04-24T19:56:16.536Z,96989.34
2023-04-24T19:58:49.927Z,96995.91
2023-04-24T20:01:21.093Z,96997.16
2023-04-24T20:03:51.385Z,96998.94
2023-04-24T20:06:21.969Z,96999.22
2023-04-24T20:08:52.493Z,96999.69
2023-04-24T20:11:23.033Z,97003.72
2023-04-24T20:13:56.716Z,96999.16
2023-04-24T20:16:27.302Z,96996.38
2023-04-24T20:18:57.888Z,96999.16
2023-04-24T20:21:31.115Z,96994.13
2023-04-24T20:24:01.531Z,97004.19
2023-04-24T20:26:32.049Z,97002.34
2023-04-24T20:29:05.363Z,97007.31
2023-04-24T20:31:36.032Z,97008.56
2023-04-24T20:34:06.640Z,97002.75
2023-04-24T20:36:37.390Z,97005.53
2023-04-24T20:39:08.306Z,97000.94
2023-04-24T20:41:38.937Z,97001.38
2023-04-24T20:44:11.941Z,97000.59
2023-04-24T20:46:42.514Z,96996.44
2023-04-24T20:49:13.011Z,96997.66
2023-04-24T20:51:44.042Z,96998.38
2023-04-24T20:54:14.176Z,96996.88
2023-04-24T20:56:44.607Z,97005.44
2023-04-24T20:59:17.825Z,97008.00
2023-04-24T21:01:50.923Z,97007.41
2023-04-24T21:04:21.520Z,97014.72
2023-04-24T21:06:51.948Z,97018.84
2023-04-24T21:09:22.445Z,97009.97
2023-04-24T21:11:56.106Z,97007.50
2023-04-24T21:14:29.487Z,97002.44
2023-04-24T21:17:01.929Z,97009.53
2023-04-24T21:19:32.601Z,97000.47
2023-04-24T21:22:03.120Z,97002.06
2023-04-24T21:24:33.685Z,97001.34
2023-04-24T21:27:04.257Z,97003.00
2023-04-24T21:29:37.349Z,96997.69
2023-04-24T21:32:08.195Z,97000.75
2023-04-24T21:34:38.487Z,96998.22
2023-04-24T21:37:09.116Z,96998.06
2023-04-24T21:39:39.601Z,96993.50
2023-04-24T21:42:10.074Z,96992.06
2023-04-24T21:44:43.367Z,96987.13
2023-04-24T21:47:13.753Z,96989.38
2023-04-24T21:49:44.369Z,96989.56
2023-04-24T21:52:14.839Z,96996.28
2023-04-24T21:54:45.287Z,96983.97
2023-04-24T21:57:16.014Z,96982.91
2023-04-24T21:59:49.127Z,96991.19
2023-04-24T22:02:19.595Z,96989.09
2023-04-24T22:04:50.588Z,96989.84
2023-04-24T22:07:21.052Z,96982.50
2023-04-24T22:09:51.610Z,96988.22
2023-04-24T22:12:22.184Z,96985.81
2023-04-24T22:14:55.322Z,96984.19
2023-04-24T22:17:26.809Z,96982.81
2023-04-24T22:19:57.533Z,96983.09
2023-04-24T22:22:28.270Z,96991.19
2023-04-24T22:24:58.742Z,96987.78
2023-04-24T22:27:29.268Z,96982.88
2023-04-24T22:30:02.279Z,96981.81
2023-04-24T22:32:33.521Z,96979.75
2023-04-24T22:35:05.780Z,96980.81
2023-04-24T22:37:36.158Z,96979.19
2023-04-24T22:40:08.698Z,96985.91
2023-04-24T22:42:39.311Z,96983.25
2023-04-24T22:45:15.726Z,96995.38
2023-04-24T22:47:46.165Z,96984.09
2023-04-24T22:50:16.878Z,96987.22
2023-04-24T22:52:47.826Z,96990.34
2023-04-24T22:55:18.359Z,96987.69
2023-04-24T22:57:48.961Z,96988.88
2023-04-24T23:00:22.164Z,96987.13
2023-04-24T23:02:53.285Z,96996.88
2023-04-24T23:05:25.400Z,96990.38
2023-04-24T23:07:55.819Z,96995.63
2023-04-24T23:10:27.081Z,96984.72
2023-04-24T23:12:57.542Z,96988.34
2023-04-24T23:15:30.952Z,97001.41
2023-04-24T23:18:01.473Z,96991.88
2023-04-24T23:20:32.275Z,96990.00
2023-04-24T23:23:04.074Z,96992.09
2023-04-24T23:25:35.312Z,96985.66
2023-04-24T23:28:05.887Z,96986.59
2023-04-24T23:30:39.055Z,96979.75
2023-04-24T23:33:09.460Z,96990.72
2023-04-24T23:35:40.313Z,96991.28
2023-04-24T23:38:13.982Z,96987.66
2023-04-24T23:40:47.999Z,96978.63
2023-04-24T23:43:18.437Z,96982.72
2023-04-24T23:45:51.598Z,96979.59
2023-04-24T23:48:22.182Z,96977.28
2023-04-24T23:50:52.613Z,96970.25
2023-04-24T23:53:23.309Z,96977.75
2023-04-24T23:55:57.848Z,96971.19
2023-04-24T23:58:28.296Z,96972.56
